Time;durP1;ratioP1;P1;durP2;ratioP2;P2;SDS_P1;SDS_P2;PMS_P1;PMS_P2;Temp;Humidity;BMP_temperature;BMP_pressure;BME280_temperature;BME280_humidity;BME280_pressure;Samples;Min_cycle;Max_cycle;Signal;HPM_P1;HPM_P2
2022/07/20 00:00:08;;;;;;;11.65;7.25;;;;;;;;;;5023371;28;20083;-79
2022/07/20 00:02:33;;;;;;;8.07;5.82;;;;;;;;;;4995559;28;20045;-77
2022/07/20 00:04:58;;;;;;;7.68;5.47;;;;;;;;;;5001956;28;20374;-81
2022/07/20 00:07:23;;;;;;;8.95;5.88;;;;;;;;;;5003602;28;20065;-80
2022/07/20 00:12:32;;;;;;;8.00;5.22;;;;;;;;;;5004019;28;20045;-80
2022/07/20 00:14:58;;;;;;;8.45;5.95;;;;;;;;;;5002316;28;20042;-81
2022/07/20 00:17:23;;;;;;;10.63;5.60;;;;;;;;;;5001786;28;20032;-77
2022/07/20 00:19:48;;;;;;;9.00;5.47;;;;;;;;;;4996943;28;20364;-77
2022/07/20 00:22:16;;;;;;;6.43;5.63;;;;;;;;;;5001300;28;20852;-79
2022/07/20 00:24:44;;;;;;;10.98;5.88;;;;;;;;;;5002289;28;20270;-79
2022/07/20 00:27:10;;;;;;;10.35;5.63;;;;;;;;;;5000851;28;20492;-78
2022/07/20 00:29:35;;;;;;;13.73;5.63;;;;;;;;;;5003328;28;20026;-78
2022/07/20 00:32:00;;;;;;;7.10;5.28;;;;;;;;;;5000232;28;20302;-78
2022/07/20 00:34:25;;;;;;;7.75;6.05;;;;;;;;;;5000070;28;20026;-80
2022/07/20 00:36:50;;;;;;;8.43;6.30;;;;;;;;;;5002523;28;20160;-78
2022/07/20 00:39:16;;;;;;;8.87;6.23;;;;;;;;;;4999758;28;20080;-80
2022/07/20 00:41:41;;;;;;;7.07;5.57;;;;;;;;;;5004782;28;20386;-81
2022/07/20 00:44:08;;;;;;;6.28;5.65;;;;;;;;;;5004236;28;20398;-77
2022/07/20 00:46:34;;;;;;;6.18;5.45;;;;;;;;;;5005965;28;20136;-80
2022/07/20 00:49:00;;;;;;;8.25;5.30;;;;;;;;;;4994402;28;20037;-78
2022/07/20 00:51:25;;;;;;;7.95;5.95;;;;;;;;;;4998592;28;20032;-77
2022/07/20 00:53:51;;;;;;;8.27;6.00;;;;;;;;;;4999515;28;20042;-80
2022/07/20 00:56:18;;;;;;;9.25;5.63;;;;;;;;;;5000828;28;20037;-78
2022/07/20 00:58:44;;;;;;;8.30;5.88;;;;;;;;;;5001569;28;20559;-77
2022/07/20 01:01:09;;;;;;;8.15;6.05;;;;;;;;;;5003071;28;20129;-77
2022/07/20 01:03:35;;;;;;;6.55;5.30;;;;;;;;;;5000250;28;20040;-78
2022/07/20 01:06:00;;;;;;;9.45;6.13;;;;;;;;;;5016015;28;20045;-78
2022/07/20 01:08:27;;;;;;;9.45;6.97;;;;;;;;;;5018134;28;20085;-78
2022/07/20 01:10:52;;;;;;;7.38;6.32;;;;;;;;;;5021402;28;20100;-78
2022/07/20 01:13:17;;;;;;;9.80;6.30;;;;;;;;;;4999912;28;20528;-78
2022/07/20 01:15:42;;;;;;;10.20;6.38;;;;;;;;;;5020743;28;20034;-78
2022/07/20 01:18:07;;;;;;;7.10;5.80;;;;;;;;;;5020672;28;20033;-80
2022/07/20 01:20:33;;;;;;;8.07;5.95;;;;;;;;;;5000420;28;20279;-79
2022/07/20 01:22:58;;;;;;;9.60;6.55;;;;;;;;;;5023708;28;20623;-78
2022/07/20 01:25:24;;;;;;;7.22;6.10;;;;;;;;;;5015750;28;20014;-78
2022/07/20 01:27:49;;;;;;;6.70;5.88;;;;;;;;;;5023155;28;20025;-80
2022/07/20 01:30:14;;;;;;;7.95;5.90;;;;;;;;;;5019615;28;20034;-78
2022/07/20 01:32:39;;;;;;;8.07;6.30;;;;;;;;;;5022849;28;20032;-78
2022/07/20 01:35:05;;;;;;;9.77;6.20;;;;;;;;;;5022180;28;20029;-80
2022/07/20 01:37:30;;;;;;;8.35;6.05;;;;;;;;;;5004636;28;20374;-78
2022/07/20 01:39:55;;;;;;;8.25;5.70;;;;;;;;;;5001165;28;20116;-80
2022/07/20 01:42:21;;;;;;;6.93;5.80;;;;;;;;;;5019329;28;20457;-80
2022/07/20 01:44:46;;;;;;;8.80;6.75;;;;;;;;;;5020266;28;20076;-78
2022/07/20 01:47:11;;;;;;;8.73;6.00;;;;;;;;;;5004943;28;20048;-80
2022/07/20 01:49:36;;;;;;;10.18;6.30;;;;;;;;;;5016773;28;20091;-78
2022/07/20 01:52:02;;;;;;;8.55;6.57;;;;;;;;;;5000849;28;20740;-80
2022/07/20 01:54:27;;;;;;;10.02;6.55;;;;;;;;;;4999582;28;20737;-78
2022/07/20 01:56:53;;;;;;;10.77;6.70;;;;;;;;;;5002333;28;20029;-80
2022/07/20 01:59:18;;;;;;;12.97;6.50;;;;;;;;;;5001356;28;20517;-80
2022/07/20 02:01:43;;;;;;;7.45;6.45;;;;;;;;;;4999023;28;20299;-80
2022/07/20 02:04:09;;;;;;;8.90;6.57;;;;;;;;;;5015590;28;20127;-79
2022/07/20 02:06:34;;;;;;;7.78;6.57;;;;;;;;;;5016415;28;20386;-79
2022/07/20 02:09:02;;;;;;;7.40;6.13;;;;;;;;;;5020659;28;20471;-78
2022/07/20 02:11:28;;;;;;;11.25;6.50;;;;;;;;;;5023923;28;20278;-78
2022/07/20 02:13:53;;;;;;;8.98;6.45;;;;;;;;;;5020836;28;20029;-81
2022/07/20 02:16:19;;;;;;;12.65;6.90;;;;;;;;;;5005841;28;20041;-80
2022/07/20 02:18:46;;;;;;;9.00;6.72;;;;;;;;;;5022607;28;20041;-77
2022/07/20 02:21:12;;;;;;;9.18;5.93;;;;;;;;;;5023234;28;20049;-79
2022/07/20 02:23:38;;;;;;;8.07;7.07;;;;;;;;;;5018241;28;20045;-78
2022/07/20 02:26:03;;;;;;;10.23;7.05;;;;;;;;;;5024008;28;20022;-80
2022/07/20 02:28:29;;;;;;;11.95;6.85;;;;;;;;;;5003040;28;20083;-80
2022/07/20 02:30:54;;;;;;;8.63;6.30;;;;;;;;;;5015886;28;20493;-80
2022/07/20 02:33:19;;;;;;;13.33;7.93;;;;;;;;;;5016179;28;20087;-77
2022/07/20 02:35:44;;;;;;;11.07;6.83;;;;;;;;;;5025373;28;20282;-78
2022/07/20 02:38:09;;;;;;;9.68;7.07;;;;;;;;;;5006627;28;20685;-78
2022/07/20 02:40:38;;;;;;;9.25;7.18;;;;;;;;;;5000260;28;20893;-79
2022/07/20 02:43:05;;;;;;;8.63;7.15;;;;;;;;;;5022295;28;20037;-80
2022/07/20 02:45:30;;;;;;;14.30;8.15;;;;;;;;;;5005548;28;20036;-79
2022/07/20 02:48:02;;;;;;;8.70;7.32;;;;;;;;;;5003475;28;20033;-79
2022/07/20 02:50:27;;;;;;;15.48;7.97;;;;;;;;;;5024649;28;20029;-77
2022/07/20 02:52:52;;;;;;;11.93;7.45;;;;;;;;;;5019038;28;20041;-79
2022/07/20 02:55:18;;;;;;;10.10;7.83;;;;;;;;;;5002247;28;20029;-79
2022/07/20 02:57:43;;;;;;;11.15;7.03;;;;;;;;;;5020120;28;20749;-79
2022/07/20 03:00:10;;;;;;;8.48;6.70;;;;;;;;;;5020249;28;20029;-79
2022/07/20 03:02:35;;;;;;;9.35;7.43;;;;;;;;;;5021106;28;20025;-77
2022/07/20 03:05:00;;;;;;;10.18;7.10;;;;;;;;;;5004085;28;20615;-79
2022/07/20 03:07:25;;;;;;;12.93;7.18;;;;;;;;;;5019932;28;20049;-77
2022/07/20 03:09:51;;;;;;;9.63;7.05;;;;;;;;;;5002416;28;20060;-79
2022/07/20 03:12:16;;;;;;;8.88;7.13;;;;;;;;;;5013110;28;20124;-79
2022/07/20 03:14:41;;;;;;;14.13;7.43;;;;;;;;;;5000027;28;20108;-77
2022/07/20 03:17:06;;;;;;;8.77;7.15;;;;;;;;;;5015762;28;20848;-77
2022/07/20 03:19:31;;;;;;;8.40;7.27;;;;;;;;;;5019991;28;20400;-78
2022/07/20 03:21:57;;;;;;;10.70;8.13;;;;;;;;;;5017686;28;20279;-79
2022/07/20 03:24:22;;;;;;;10.77;8.05;;;;;;;;;;5012596;28;20034;-78
2022/07/20 03:26:47;;;;;;;12.07;7.68;;;;;;;;;;5017259;28;20371;-78
2022/07/20 03:29:15;;;;;;;12.23;8.43;;;;;;;;;;5018834;28;20068;-79
2022/07/20 03:31:41;;;;;;;11.18;7.10;;;;;;;;;;5017027;28;20587;-77
2022/07/20 03:34:06;;;;;;;8.32;7.03;;;;;;;;;;5019954;28;20041;-79
2022/07/20 03:36:31;;;;;;;15.25;8.65;;;;;;;;;;5016837;28;20397;-79
2022/07/20 03:38:56;;;;;;;11.43;8.43;;;;;;;;;;5020913;28;20325;-77
2022/07/20 03:41:21;;;;;;;10.73;8.50;;;;;;;;;;5001026;28;20028;-79
2022/07/20 03:43:48;;;;;;;11.35;7.28;;;;;;;;;;5015266;28;20766;-79
2022/07/20 03:46:17;;;;;;;12.10;8.25;;;;;;;;;;5000122;28;20033;-79
2022/07/20 03:48:42;;;;;;;11.02;7.45;;;;;;;;;;5018116;28;20021;-77
2022/07/20 03:51:07;;;;;;;13.13;7.75;;;;;;;;;;5020723;28;20370;-79
2022/07/20 03:53:33;;;;;;;12.47;8.03;;;;;;;;;;5014069;28;20094;-79
2022/07/20 03:55:58;;;;;;;13.85;9.20;;;;;;;;;;5019185;28;20286;-79
2022/07/20 03:58:23;;;;;;;21.20;8.63;;;;;;;;;;5019209;28;20033;-79
2022/07/20 04:00:48;;;;;;;9.85;7.45;;;;;;;;;;5019915;28;20776;-79
2022/07/20 04:03:17;;;;;;;15.13;8.47;;;;;;;;;;4998744;28;20385;-78
2022/07/20 04:05:42;;;;;;;10.55;7.90;;;;;;;;;;5020028;28;20750;-77
2022/07/20 04:08:08;;;;;;;15.90;8.75;;;;;;;;;;4997860;28;20029;-80
2022/07/20 04:10:34;;;;;;;9.68;7.80;;;;;;;;;;4993228;28;20413;-79
2022/07/20 04:12:59;;;;;;;11.68;8.77;;;;;;;;;;5015008;28;20022;-79
2022/07/20 04:15:24;;;;;;;13.77;8.67;;;;;;;;;;5002754;28;20037;-80
2022/07/20 04:17:49;;;;;;;16.45;8.73;;;;;;;;;;5000337;28;20286;-78
2022/07/20 04:20:14;;;;;;;12.48;8.10;;;;;;;;;;4997655;28;20053;-79
2022/07/20 04:22:40;;;;;;;11.83;8.70;;;;;;;;;;4998260;28;20022;-77
2022/07/20 04:25:05;;;;;;;14.70;9.60;;;;;;;;;;5000556;28;20271;-79
2022/07/20 04:27:30;;;;;;;16.15;10.02;;;;;;;;;;4997799;28;20990;-77
2022/07/20 04:29:55;;;;;;;11.77;9.37;;;;;;;;;;4993278;28;20026;-79
2022/07/20 04:32:23;;;;;;;14.27;8.83;;;;;;;;;;5000701;28;20656;-79
2022/07/20 04:34:49;;;;;;;13.90;9.07;;;;;;;;;;4994854;28;20287;-79
2022/07/20 04:37:14;;;;;;;14.77;9.05;;;;;;;;;;4998052;28;20026;-79
2022/07/20 04:39:39;;;;;;;14.88;8.85;;;;;;;;;;4999269;28;20561;-77
2022/07/20 04:42:04;;;;;;;16.48;9.50;;;;;;;;;;4996176;28;20036;-77
2022/07/20 04:44:30;;;;;;;13.57;10.23;;;;;;;;;;5001995;28;20084;-77
2022/07/20 04:46:55;;;;;;;14.70;8.98;;;;;;;;;;4998633;28;20033;-78
2022/07/20 04:49:20;;;;;;;13.05;9.20;;;;;;;;;;4995872;28;20125;-77
2022/07/20 04:51:46;;;;;;;12.52;8.65;;;;;;;;;;4999905;28;20120;-79
2022/07/20 04:54:11;;;;;;;11.82;8.40;;;;;;;;;;4995814;28;20339;-79
2022/07/20 04:56:36;;;;;;;16.58;9.40;;;;;;;;;;4998127;28;20498;-77
2022/07/20 04:59:02;;;;;;;10.70;8.63;;;;;;;;;;5010655;28;22035;-79
2022/07/20 05:01:27;;;;;;;12.13;9.45;;;;;;;;;;5010305;28;20041;-77
2022/07/20 05:03:52;;;;;;;17.25;10.95;;;;;;;;;;4983597;28;20029;-77
2022/07/20 05:06:18;;;;;;;15.60;10.18;;;;;;;;;;5013088;28;20417;-77
2022/07/20 05:08:43;;;;;;;18.35;10.07;;;;;;;;;;5012631;28;20064;-77
2022/07/20 05:11:08;;;;;;;13.52;9.95;;;;;;;;;;4998356;28;20029;-77
2022/07/20 05:13:34;;;;;;;17.90;10.88;;;;;;;;;;4996464;28;20034;-79
2022/07/20 05:15:59;;;;;;;16.08;9.82;;;;;;;;;;5012860;28;20069;-77
2022/07/20 05:18:25;;;;;;;21.90;9.98;;;;;;;;;;4998146;28;20088;-77
2022/07/20 05:20:50;;;;;;;12.13;9.13;;;;;;;;;;4997053;28;20537;-79
2022/07/20 05:23:15;;;;;;;15.40;10.00;;;;;;;;;;4991149;28;20028;-79
2022/07/20 05:25:40;;;;;;;16.58;9.57;;;;;;;;;;5000455;28;20283;-79
2022/07/20 05:28:06;;;;;;;13.57;10.02;;;;;;;;;;5001916;28;20022;-79
2022/07/20 05:30:32;;;;;;;13.15;10.00;;;;;;;;;;4995950;28;20030;-79
2022/07/20 05:32:57;;;;;;;15.18;9.55;;;;;;;;;;4996945;28;20064;-79
2022/07/20 05:35:22;;;;;;;14.73;9.55;;;;;;;;;;5004274;28;20034;-79
2022/07/20 05:37:47;;;;;;;13.00;8.15;;;;;;;;;;4994526;28;20032;-77
2022/07/20 05:40:13;;;;;;;17.17;8.87;;;;;;;;;;4998840;28;20520;-76
2022/07/20 05:42:38;;;;;;;13.05;8.50;;;;;;;;;;5001986;28;20284;-76
2022/07/20 05:45:05;;;;;;;13.30;8.52;;;;;;;;;;5008174;28;20478;-78
2022/07/20 05:47:30;;;;;;;15.10;9.52;;;;;;;;;;5028051;28;20489;-78
2022/07/20 05:49:56;;;;;;;12.53;8.77;;;;;;;;;;5001841;28;20057;-76
2022/07/20 05:52:21;;;;;;;16.75;9.35;;;;;;;;;;5028887;28;20340;-77
2022/07/20 05:54:47;;;;;;;14.43;9.20;;;;;;;;;;5006658;28;20022;-76
2022/07/20 05:57:12;;;;;;;17.65;10.57;;;;;;;;;;5012853;28;20287;-78
2022/07/20 05:59:37;;;;;;;17.35;11.70;;;;;;;;;;5010182;28;20024;-78
2022/07/20 06:02:03;;;;;;;14.45;9.38;;;;;;;;;;5006060;28;20437;-75
2022/07/20 06:04:28;;;;;;;18.83;10.23;;;;;;;;;;5007300;28;20026;-75
2022/07/20 06:06:54;;;;;;;17.75;11.38;;;;;;;;;;5005429;28;20021;-75
2022/07/20 06:09:19;;;;;;;27.93;15.73;;;;;;;;;;5007824;28;20081;-75
2022/07/20 06:11:44;;;;;;;23.88;14.15;;;;;;;;;;5029343;28;20282;-78
2022/07/20 06:14:09;;;;;;;27.13;16.90;;;;;;;;;;5013076;28;20029;-75
2022/07/20 06:16:35;;;;;;;34.03;19.10;;;;;;;;;;5025738;28;20533;-79
2022/07/20 06:19:01;;;;;;;29.45;15.75;;;;;;;;;;5013200;28;20128;-78
2022/07/20 06:21:26;;;;;;;34.88;19.85;;;;;;;;;;5019892;28;20128;-78
2022/07/20 06:23:52;;;;;;;34.22;19.48;;;;;;;;;;5028265;28;20076;-76
2022/07/20 06:26:17;;;;;;;26.58;16.90;;;;;;;;;;5012787;28;20374;-78
2022/07/20 06:28:42;;;;;;;41.90;21.83;;;;;;;;;;5017279;28;20017;-75
2022/07/20 06:31:08;;;;;;;39.57;20.73;;;;;;;;;;5012943;28;20291;-78
2022/07/20 06:33:33;;;;;;;35.28;19.45;;;;;;;;;;5026417;28;20611;-78
2022/07/20 06:35:58;;;;;;;44.60;20.90;;;;;;;;;;5027213;28;20060;-78
2022/07/20 06:38:23;;;;;;;40.13;22.70;;;;;;;;;;5013312;28;20692;-75
2022/07/20 06:40:49;;;;;;;39.25;21.63;;;;;;;;;;5030991;28;20029;-77
2022/07/20 06:43:14;;;;;;;50.03;22.75;;;;;;;;;;5008664;28;20079;-78
2022/07/20 06:45:39;;;;;;;43.47;23.17;;;;;;;;;;5014217;28;20114;-78
2022/07/20 06:48:04;;;;;;;44.37;26.13;;;;;;;;;;5035667;28;20320;-78
2022/07/20 06:50:30;;;;;;;58.05;26.70;;;;;;;;;;5029771;28;20622;-79
2022/07/20 06:52:55;;;;;;;52.25;26.73;;;;;;;;;;5030944;28;20116;-75
2022/07/20 06:55:23;;;;;;;51.17;28.15;;;;;;;;;;5026670;28;20057;-75
2022/07/20 06:57:49;;;;;;;50.70;27.08;;;;;;;;;;5028800;28;20440;-75
2022/07/20 07:00:14;;;;;;;48.42;26.15;;;;;;;;;;5026920;28;20129;-75
2022/07/20 07:02:39;;;;;;;43.38;27.83;;;;;;;;;;5023266;28;20024;-75
2022/07/20 07:05:05;;;;;;;54.63;30.73;;;;;;;;;;5012237;28;20057;-77
2022/07/20 07:07:30;;;;;;;52.85;28.83;;;;;;;;;;5025088;28;21161;-76
2022/07/20 07:09:56;;;;;;;50.55;28.48;;;;;;;;;;5007837;28;20037;-76
2022/07/20 07:12:21;;;;;;;53.45;29.00;;;;;;;;;;5025522;28;20103;-77
2022/07/20 07:14:47;;;;;;;45.60;28.63;;;;;;;;;;5016024;28;20029;-76
2022/07/20 07:17:12;;;;;;;50.35;30.80;;;;;;;;;;5024653;28;20131;-77
2022/07/20 07:19:38;;;;;;;53.03;30.10;;;;;;;;;;5032761;28;20541;-75
2022/07/20 07:22:03;;;;;;;61.78;37.40;;;;;;;;;;5032569;28;20443;-78
2022/07/20 07:24:30;;;;;;;50.08;30.75;;;;;;;;;;5030423;28;20022;-78
2022/07/20 07:26:55;;;;;;;65.65;38.25;;;;;;;;;;5029854;28;20436;-75
2022/07/20 07:29:23;;;;;;;67.35;35.53;;;;;;;;;;5027776;28;20036;-78
2022/07/20 07:31:48;;;;;;;61.30;34.67;;;;;;;;;;5025932;28;20033;-76
2022/07/20 07:34:14;;;;;;;51.22;29.65;;;;;;;;;;5012968;28;20081;-75
2022/07/20 07:36:39;;;;;;;59.40;33.58;;;;;;;;;;5027502;28;20102;-77
2022/07/20 07:39:04;;;;;;;60.53;33.50;;;;;;;;;;5011559;28;20025;-75
2022/07/20 07:41:29;;;;;;;58.38;32.50;;;;;;;;;;5023955;28;20275;-75
2022/07/20 07:43:55;;;;;;;55.90;33.40;;;;;;;;;;5021818;28;20026;-77
2022/07/20 07:46:20;;;;;;;58.72;32.53;;;;;;;;;;5026243;28;20060;-75
2022/07/20 07:48:45;;;;;;;53.65;33.35;;;;;;;;;;5009790;28;20056;-79
2022/07/20 07:51:11;;;;;;;44.80;29.08;;;;;;;;;;5025347;28;20032;-78
2022/07/20 07:53:36;;;;;;;50.05;32.42;;;;;;;;;;5028348;28;20017;-77
2022/07/20 07:56:01;;;;;;;51.40;33.33;;;;;;;;;;5023403;28;20156;-78
2022/07/20 07:58:26;;;;;;;52.65;34.13;;;;;;;;;;5000841;28;21008;-78
2022/07/20 08:00:52;;;;;;;57.45;33.50;;;;;;;;;;5025408;28;20075;-76
2022/07/20 08:03:17;;;;;;;48.75;33.80;;;;;;;;;;5024157;28;20017;-79
2022/07/20 08:05:42;;;;;;;57.42;34.92;;;;;;;;;;5006028;28;20029;-83
2022/07/20 08:08:09;;;;;;;45.92;33.17;;;;;;;;;;5002756;28;20034;-77
2022/07/20 08:10:34;;;;;;;42.50;31.30;;;;;;;;;;5004898;28;20030;-77
2022/07/20 08:13:00;;;;;;;49.22;31.75;;;;;;;;;;5008185;28;20381;-77
2022/07/20 08:15:25;;;;;;;48.05;33.95;;;;;;;;;;5009541;28;20029;-81
2022/07/20 08:17:50;;;;;;;47.72;31.27;;;;;;;;;;5004110;28;20033;-82
2022/07/20 08:20:21;;;;;;;53.00;33.13;;;;;;;;;;5018900;28;20371;-76
2022/07/20 08:22:46;;;;;;;50.10;31.88;;;;;;;;;;5036228;28;20409;-76
2022/07/20 08:25:11;;;;;;;51.23;35.97;;;;;;;;;;5012430;28;20029;-78
2022/07/20 08:27:40;;;;;;;52.33;35.53;;;;;;;;;;5023176;28;20295;-76
2022/07/20 08:30:05;;;;;;;43.78;33.33;;;;;;;;;;5008002;28;20033;-77
2022/07/20 08:32:31;;;;;;;54.25;35.85;;;;;;;;;;5007449;28;20047;-76
2022/07/20 08:34:56;;;;;;;47.42;31.92;;;;;;;;;;5022082;28;20474;-76
2022/07/20 08:37:22;;;;;;;64.13;35.85;;;;;;;;;;5004278;28;20461;-75
2022/07/20 08:39:47;;;;;;;42.53;33.55;;;;;;;;;;5009701;28;20037;-75
2022/07/20 08:42:12;;;;;;;45.15;36.10;;;;;;;;;;5024276;28;20036;-82
2022/07/20 08:44:41;;;;;;;48.72;35.80;;;;;;;;;;5020047;28;20029;-76
2022/07/20 08:47:11;;;;;;;45.13;33.17;;;;;;;;;;5023182;28;20033;-79
2022/07/20 08:49:49;;;;;;;44.17;33.65;;;;;;;;;;5018434;28;20026;-81
2022/07/20 08:52:15;;;;;;;43.63;31.58;;;;;;;;;;5025438;28;20057;-81
2022/07/20 08:54:41;;;;;;;39.03;30.50;;;;;;;;;;5022764;28;20334;-80
2022/07/20 08:57:07;;;;;;;44.83;31.00;;;;;;;;;;5026937;28;22632;-81
2022/07/20 08:59:32;;;;;;;35.17;27.45;;;;;;;;;;5024610;28;20017;-77
2022/07/20 09:01:59;;;;;;;36.60;26.40;;;;;;;;;;5021773;28;20028;-82
2022/07/20 09:04:24;;;;;;;33.65;25.73;;;;;;;;;;5018112;28;20381;-82
2022/07/20 09:06:50;;;;;;;42.05;25.20;;;;;;;;;;5038676;28;20025;-75
2022/07/20 09:09:15;;;;;;;33.50;24.70;;;;;;;;;;5030860;28;20029;-80
2022/07/20 09:11:44;;;;;;;34.45;22.88;;;;;;;;;;5028037;28;20029;-80
2022/07/20 09:14:09;;;;;;;32.70;23.30;;;;;;;;;;5023307;28;20030;-79
2022/07/20 09:16:48;;;;;;;31.92;24.67;;;;;;;;;;5026002;28;20850;-80
2022/07/20 09:19:14;;;;;;;27.38;22.35;;;;;;;;;;5008356;28;20087;-81
2022/07/20 09:21:40;;;;;;;35.22;23.35;;;;;;;;;;5006399;28;20025;-81
2022/07/20 09:24:06;;;;;;;32.80;21.98;;;;;;;;;;5025379;28;20457;-81
2022/07/20 09:26:32;;;;;;;34.22;23.20;;;;;;;;;;5006034;28;20714;-79
2022/07/20 09:28:59;;;;;;;37.40;23.90;;;;;;;;;;5014365;28;20034;-79
2022/07/20 09:31:33;;;;;;;36.45;22.02;;;;;;;;;;5023640;28;20067;-78
2022/07/20 09:34:03;;;;;;;33.38;22.70;;;;;;;;;;5022594;28;20022;-76
2022/07/20 09:36:29;;;;;;;28.45;21.08;;;;;;;;;;5017990;28;20113;-76
2022/07/20 09:39:04;;;;;;;36.17;21.48;;;;;;;;;;5023557;28;20445;-78
2022/07/20 09:41:31;;;;;;;29.65;19.88;;;;;;;;;;5033399;28;20031;-75
2022/07/20 09:43:57;;;;;;;29.33;19.50;;;;;;;;;;5006899;28;20381;-78
2022/07/20 09:46:30;;;;;;;24.70;20.23;;;;;;;;;;5004729;28;20017;-77
2022/07/20 09:48:57;;;;;;;31.17;20.30;;;;;;;;;;5020292;28;20057;-74
2022/07/20 09:51:22;;;;;;;26.38;18.85;;;;;;;;;;5026425;28;20472;-78
2022/07/20 09:53:48;;;;;;;25.50;18.60;;;;;;;;;;5017295;28;20021;-76
2022/07/20 09:56:17;;;;;;;23.90;18.33;;;;;;;;;;5016575;28;20341;-78
2022/07/20 09:58:44;;;;;;;27.80;16.95;;;;;;;;;;4997167;28;20030;-74
2022/07/20 10:01:09;;;;;;;27.92;17.90;;;;;;;;;;5022765;28;20032;-78
2022/07/20 10:03:35;;;;;;;22.00;17.15;;;;;;;;;;5005273;28;20434;-78
2022/07/20 10:06:01;;;;;;;23.92;16.75;;;;;;;;;;5001927;28;20061;-78
2022/07/20 10:08:26;;;;;;;24.02;16.85;;;;;;;;;;5022792;28;20788;-76
2022/07/20 10:10:51;;;;;;;22.35;16.52;;;;;;;;;;5022993;28;20030;-75
2022/07/20 10:13:17;;;;;;;19.70;17.05;;;;;;;;;;5027094;28;20493;-74
2022/07/20 10:15:48;;;;;;;24.92;15.85;;;;;;;;;;5021845;28;20083;-79
2022/07/20 10:18:13;;;;;;;24.33;17.20;;;;;;;;;;5017572;28;21878;-75
2022/07/20 10:20:39;;;;;;;21.13;14.32;;;;;;;;;;5012299;28;20025;-79
2022/07/20 10:23:16;;;;;;;22.08;15.32;;;;;;;;;;5009830;28;20411;-76
2022/07/20 10:25:45;;;;;;;20.85;14.50;;;;;;;;;;5016942;28;20022;-75
2022/07/20 10:28:22;;;;;;;29.25;18.50;;;;;;;;;;5016152;28;20018;-78
2022/07/20 10:30:52;;;;;;;24.13;17.38;;;;;;;;;;5024947;28;20514;-79
2022/07/20 10:33:18;;;;;;;27.88;17.73;;;;;;;;;;5011944;28;21353;-74
2022/07/20 10:35:45;;;;;;;31.30;19.33;;;;;;;;;;5020367;28;20022;-77
2022/07/20 10:38:11;;;;;;;18.38;13.15;;;;;;;;;;5002462;28;20035;-78
2022/07/20 10:41:31;;;;;;;23.48;14.88;;;;;;;;;;5019454;28;20037;-77
2022/07/20 10:43:24;;;;;;;29.02;19.58;;;;;;;;;;5012900;28;20060;-79
2022/07/20 10:45:49;;;;;;;19.00;14.63;;;;;;;;;;5017710;28;20057;-75
2022/07/20 10:48:15;;;;;;;20.43;14.43;;;;;;;;;;5004755;28;20099;-76
2022/07/20 10:51:03;;;;;;;18.75;13.52;;;;;;;;;;5018424;28;20289;-79
2022/07/20 10:53:30;;;;;;;18.80;14.73;;;;;;;;;;5018369;28;20033;-76
2022/07/20 10:56:03;;;;;;;20.08;15.45;;;;;;;;;;5019981;28;20048;-74
2022/07/20 10:58:32;;;;;;;24.17;17.15;;;;;;;;;;5018342;28;20029;-74
2022/07/20 11:00:58;;;;;;;19.00;14.88;;;;;;;;;;5018589;28;20056;-74
2022/07/20 11:03:30;;;;;;;20.85;13.98;;;;;;;;;;5013590;28;20299;-77
2022/07/20 11:06:04;;;;;;;20.85;13.05;;;;;;;;;;5021332;28;20469;-77
2022/07/20 11:08:30;;;;;;;18.42;13.57;;;;;;;;;;5012564;28;20049;-74
2022/07/20 11:10:58;;;;;;;21.10;13.45;;;;;;;;;;5016050;28;20477;-74
2022/07/20 11:13:23;;;;;;;17.58;12.43;;;;;;;;;;5018242;28;20038;-78
2022/07/20 11:15:49;;;;;;;18.95;13.35;;;;;;;;;;5021925;28;20366;-78
2022/07/20 11:18:19;;;;;;;20.00;13.73;;;;;;;;;;5003861;28;20477;-73
2022/07/20 11:20:46;;;;;;;23.95;13.95;;;;;;;;;;5007632;28;20025;-79
2022/07/20 11:23:13;;;;;;;24.55;15.75;;;;;;;;;;5025520;28;20461;-78
2022/07/20 11:25:52;;;;;;;19.55;13.20;;;;;;;;;;5027740;28;20056;-79
2022/07/20 11:28:18;;;;;;;30.40;16.90;;;;;;;;;;5026247;28;20021;-75
2022/07/20 11:30:45;;;;;;;19.20;14.15;;;;;;;;;;5024910;28;20037;-79
2022/07/20 11:33:10;;;;;;;17.17;13.70;;;;;;;;;;5023427;28;20367;-74
2022/07/20 11:35:36;;;;;;;17.50;13.55;;;;;;;;;;5009675;28;20041;-75
2022/07/20 11:38:04;;;;;;;24.00;15.77;;;;;;;;;;5024936;28;20032;-75
2022/07/20 11:40:29;;;;;;;19.83;14.13;;;;;;;;;;5010288;28;20087;-76
2022/07/20 11:43:11;;;;;;;20.33;14.75;;;;;;;;;;5024825;28;20104;-78
2022/07/20 11:45:37;;;;;;;17.70;14.63;;;;;;;;;;5019550;28;20474;-75
2022/07/20 11:48:14;;;;;;;22.42;13.77;;;;;;;;;;5007711;28;20037;-74
2022/07/20 11:50:39;;;;;;;17.30;13.55;;;;;;;;;;5029337;28;20371;-76
2022/07/20 11:53:24;;;;;;;17.48;13.75;;;;;;;;;;5030242;28;20181;-74
2022/07/20 11:55:49;;;;;;;19.40;14.15;;;;;;;;;;5009663;28;20033;-79
2022/07/20 11:58:22;;;;;;;18.23;10.60;;;;;;;;;;5029117;28;20393;-76
2022/07/20 12:00:47;;;;;;;9.60;8.60;;;;;;;;;;5023830;28;20606;-74
2022/07/20 12:03:12;;;;;;;9.40;7.28;;;;;;;;;;5025541;28;20016;-73
2022/07/20 12:05:41;;;;;;;9.10;7.65;;;;;;;;;;5022279;28;20029;-75
2022/07/20 12:08:13;;;;;;;12.90;7.68;;;;;;;;;;4993231;28;20084;-79
2022/07/20 12:10:38;;;;;;;;;;;;;;;;;;5021064;28;20104;-73
2022/07/20 12:13:05;;;;;;;11.57;7.35;;;;;;;;;;5031868;28;20269;-73
2022/07/20 12:15:30;;;;;;;12.00;8.50;;;;;;;;;;5012666;28;22273;-78
2022/07/20 12:17:55;;;;;;;11.95;8.52;;;;;;;;;;5025264;28;20045;-78
2022/07/20 12:20:21;;;;;;;8.93;7.90;;;;;;;;;;5021178;28;20128;-78
2022/07/20 12:22:56;;;;;;;14.32;8.85;;;;;;;;;;5018530;28;20036;-75
2022/07/20 12:25:22;;;;;;;8.38;7.53;;;;;;;;;;5012917;28;20749;-74
2022/07/20 12:27:48;;;;;;;11.40;8.43;;;;;;;;;;5025268;28;20045;-74
2022/07/20 12:30:41;;;;;;;12.90;7.80;;;;;;;;;;5013026;28;20021;-79
2022/07/20 12:33:14;;;;;;;9.18;7.43;;;;;;;;;;5003623;28;20044;-75
2022/07/20 12:35:40;;;;;;;12.13;7.90;;;;;;;;;;4998262;28;20083;-74
2022/07/20 12:38:06;;;;;;;12.38;8.95;;;;;;;;;;5016409;28;20033;-74
2022/07/20 12:40:34;;;;;;;11.15;8.63;;;;;;;;;;5022804;28;20462;-78
2022/07/20 12:43:03;;;;;;;10.05;7.40;;;;;;;;;;5021985;28;20433;-78
2022/07/20 12:45:28;;;;;;;10.55;8.07;;;;;;;;;;5023849;28;20033;-78
2022/07/20 12:47:54;;;;;;;9.43;7.60;;;;;;;;;;5020747;28;20028;-74
2022/07/20 12:50:19;;;;;;;8.90;7.70;;;;;;;;;;5022795;28;20033;-78
2022/07/20 12:52:44;;;;;;;11.47;7.70;;;;;;;;;;5007907;28;20371;-79
2022/07/20 12:55:09;;;;;;;8.68;7.80;;;;;;;;;;5022305;28;20025;-75
2022/07/20 12:57:35;;;;;;;9.43;7.60;;;;;;;;;;5022134;28;20161;-79
2022/07/20 13:00:00;;;;;;;11.55;8.35;;;;;;;;;;5034263;28;20374;-74
2022/07/20 13:02:25;;;;;;;10.20;8.68;;;;;;;;;;5023479;28;20025;-79
2022/07/20 13:04:50;;;;;;;12.07;8.60;;;;;;;;;;5022099;28;20031;-75
2022/07/20 13:07:16;;;;;;;14.82;8.32;;;;;;;;;;5005082;28;20294;-74
2022/07/20 13:09:41;;;;;;;11.23;7.97;;;;;;;;;;5024193;28;20033;-75
2022/07/20 13:12:07;;;;;;;12.18;8.50;;;;;;;;;;5024021;28;20416;-74
2022/07/20 13:14:32;;;;;;;13.02;7.95;;;;;;;;;;5024525;28;20041;-74
2022/07/20 13:16:57;;;;;;;16.53;8.70;;;;;;;;;;5019654;28;20151;-79
2022/07/20 13:19:23;;;;;;;11.35;9.40;;;;;;;;;;5019143;28;20417;-75
2022/07/20 13:21:48;;;;;;;10.45;8.10;;;;;;;;;;5007177;28;20032;-80
2022/07/20 13:24:14;;;;;;;15.73;10.05;;;;;;;;;;5002433;28;20042;-79
2022/07/20 13:26:43;;;;;;;13.95;8.90;;;;;;;;;;5023343;28;20040;-74
2022/07/20 13:29:09;;;;;;;12.75;8.88;;;;;;;;;;5026802;28;20465;-75
2022/07/20 13:31:34;;;;;;;12.75;7.80;;;;;;;;;;5017117;28;20035;-75
2022/07/20 13:34:00;;;;;;;21.00;9.80;;;;;;;;;;5022574;28;20505;-79
2022/07/20 13:36:26;;;;;;;13.82;8.07;;;;;;;;;;5026554;28;20037;-77
2022/07/20 13:38:52;;;;;;;12.48;7.43;;;;;;;;;;5026660;28;20032;-75
2022/07/20 13:41:18;;;;;;;12.30;7.63;;;;;;;;;;5020300;28;20022;-75
2022/07/20 13:43:43;;;;;;;13.27;8.65;;;;;;;;;;5027125;28;20052;-75
2022/07/20 13:46:08;;;;;;;12.03;7.70;;;;;;;;;;5025087;28;20048;-75
2022/07/20 13:48:34;;;;;;;10.83;8.33;;;;;;;;;;5024936;28;20298;-75
2022/07/20 13:50:59;;;;;;;10.07;7.97;;;;;;;;;;5007087;28;20278;-76
2022/07/20 13:53:24;;;;;;;14.27;9.05;;;;;;;;;;5026222;28;20036;-80
2022/07/20 13:55:50;;;;;;;12.88;9.38;;;;;;;;;;5025611;28;20028;-75
2022/07/20 13:58:15;;;;;;;14.43;8.93;;;;;;;;;;5007200;28;20392;-75
2022/07/20 14:00:40;;;;;;;10.45;7.80;;;;;;;;;;5000801;28;20385;-76
2022/07/20 14:03:06;;;;;;;16.47;8.90;;;;;;;;;;5021323;28;20025;-75
2022/07/20 14:05:31;;;;;;;11.15;7.80;;;;;;;;;;5023745;28;20308;-80
2022/07/20 14:07:56;;;;;;;9.93;7.93;;;;;;;;;;5026756;28;20409;-77
2022/07/20 14:10:21;;;;;;;11.17;8.10;;;;;;;;;;5009230;28;20025;-80
2022/07/20 14:12:47;;;;;;;11.43;7.77;;;;;;;;;;5025347;28;20258;-76
2022/07/20 14:15:12;;;;;;;13.32;8.02;;;;;;;;;;5006017;28;20278;-75
2022/07/20 14:17:39;;;;;;;10.35;8.13;;;;;;;;;;5007140;28;20032;-76
2022/07/20 14:20:05;;;;;;;7.93;7.07;;;;;;;;;;5020889;28;20036;-76
2022/07/20 14:22:30;;;;;;;10.70;7.57;;;;;;;;;;5009743;28;20033;-80